createdAt,value
2022-08-04T00:00:37.204Z,99780.30
2022-08-04T00:01:52.321Z,99780.24
2022-08-04T00:03:19.654Z,99779.87
2022-08-04T00:04:35.166Z,99785.63
2022-08-04T00:05:55.825Z,99788.92
2022-08-04T00:07:10.226Z,99779.57
2022-08-04T00:08:27.651Z,99786.75
2022-08-04T00:09:50.366Z,99784.45
2022-08-04T00:10:55.844Z,99784.45
2022-08-04T00:12:00.733Z,99781.89
2022-08-04T00:13:04.131Z,99789.17
2022-08-04T00:14:10.350Z,99773.92
2022-08-04T00:15:16.473Z,99780.02
2022-08-04T00:16:22.826Z,99781.46
2022-08-04T00:17:31.457Z,99780.87
2022-08-04T00:18:42.847Z,99783.14
2022-08-04T00:19:51.214Z,99776.18
2022-08-04T00:20:57.064Z,99781.46
2022-08-04T00:22:03.337Z,99779.27
2022-08-04T00:23:06.136Z,99784.03
2022-08-04T00:24:13.073Z,99777.30
2022-08-04T00:25:15.384Z,99778.16
2022-08-04T00:26:19.976Z,99782.34
2022-08-04T00:27:22.944Z,99781.10
2022-08-04T00:28:26.791Z,99770.55
2022-08-04T00:29:30.365Z,99767.19
2022-08-04T00:30:33.118Z,99771.95
2022-08-04T00:31:54.744Z,99769.77
2022-08-04T00:32:41.218Z,99763.06
2022-08-04T00:33:45.148Z,99772.22
2022-08-04T00:34:49.088Z,99776.09
2022-08-04T00:35:54.278Z,99774.59
2022-08-04T00:36:57.492Z,99775.00
2022-08-04T00:38:00.913Z,99769.00
2022-08-04T00:39:03.238Z,99774.72
2022-08-04T00:40:11.050Z,99777.70
2022-08-04T00:41:31.898Z,99777.56
2022-08-04T00:42:58.159Z,99773.09
2022-08-04T00:43:51.928Z,99774.01
2022-08-04T00:45:12.846Z,99774.15
2022-08-04T00:46:48.111Z,99770.65
2022-08-04T00:47:56.714Z,99776.02
2022-08-04T00:49:20.384Z,99776.92
2022-08-04T00:50:44.352Z,99782.78
2022-08-04T00:52:31.639Z,99778.38
2022-08-04T00:53:20.615Z,99783.30
2022-08-04T00:54:48.623Z,99787.78
2022-08-04T00:56:06.479Z,99787.78
2022-08-04T00:57:34.025Z,99794.50
2022-08-04T00:58:55.627Z,99791.14
2022-08-04T01:00:07.372Z,99792.00
2022-08-04T01:01:13.082Z,99797.28
2022-08-04T01:04:03.621Z,99792.05
2022-08-04T01:05:08.849Z,99796.70
2022-08-04T01:06:31.295Z,99802.80
2022-08-04T01:08:03.205Z,99810.01
2022-08-04T01:09:27.527Z,99801.98
2022-08-04T01:10:59.338Z,99804.84
2022-08-04T01:12:14.083Z,99804.25
2022-08-04T01:13:25.577Z,99803.73
2022-08-04T01:14:46.375Z,99809.33
2022-08-04T01:16:01.312Z,99805.72
2022-08-04T01:17:19.154Z,99803.53
2022-08-04T01:18:24.690Z,99808.36
2022-08-04T01:19:50.082Z,99808.59
2022-08-04T01:21:21.583Z,99815.55
2022-08-04T01:22:32.924Z,99821.92
2022-08-04T01:24:01.999Z,99807.42
2022-08-04T01:25:43.126Z,99808.97
2022-08-04T01:26:58.642Z,99808.87
2022-08-04T01:28:13.311Z,99816.30
2022-08-04T01:29:16.412Z,99809.96
2022-08-04T01:30:19.347Z,99811.37
2022-08-04T01:31:44.756Z,99809.19
2022-08-04T01:32:52.255Z,99809.77
2022-08-04T01:33:58.489Z,99812.27
2022-08-04T01:35:05.600Z,99813.95
2022-08-04T01:36:11.355Z,99810.73
2022-08-04T01:37:33.853Z,99811.45
2022-08-04T01:38:39.290Z,99816.06
2022-08-04T01:39:50.784Z,99811.51
2022-08-04T01:40:55.599Z,99809.05
2022-08-04T01:41:59.858Z,99813.13
2022-08-04T01:43:04.815Z,99806.38
2022-08-04T01:44:09.339Z,99810.94
2022-08-04T01:45:13.417Z,99811.31
2022-08-04T01:46:17.936Z,99811.69
2022-08-04T01:47:21.069Z,99806.41
2022-08-04T01:48:26.352Z,99809.32
2022-08-04T01:49:32.118Z,99810.55
2022-08-04T01:50:36.495Z,99819.16
2022-08-04T01:51:40.221Z,99817.55
2022-08-04T01:52:47.692Z,99814.53
2022-08-04T01:53:48.582Z,99811.28
2022-08-04T01:54:51.035Z,99811.14
2022-08-04T01:55:55.846Z,99814.50
2022-08-04T01:56:59.564Z,99809.95
2022-08-04T01:58:05.962Z,99815.36
2022-08-04T01:59:08.664Z,99812.83
2022-08-04T02:00:14.565Z,99809.33
2022-08-04T02:01:17.873Z,99811.86
2022-08-04T02:02:23.069Z,99810.91
2022-08-04T02:04:18.469Z,99810.52
2022-08-04T02:04:31.029Z,99809.13
2022-08-04T02:06:02.394Z,99808.74
2022-08-04T02:06:50.008Z,99813.64
2022-08-04T02:08:20.127Z,99805.83
2022-08-04T02:09:25.506Z,99811.97
2022-08-04T02:10:31.304Z,99809.95
2022-08-04T02:11:34.070Z,99808.06
2022-08-04T02:12:56.597Z,99806.24
2022-08-04T02:14:09.544Z,99800.72
2022-08-04T02:15:21.912Z,99809.02
2022-08-04T02:16:34.202Z,99800.66
2022-08-04T02:17:58.467Z,99797.73
2022-08-04T02:19:18.288Z,99799.87
2022-08-04T02:20:26.420Z,99798.46
2022-08-04T02:21:42.644Z,99794.01
2022-08-04T02:22:42.249Z,99793.91
2022-08-04T02:23:47.927Z,99793.28
2022-08-04T02:24:53.604Z,99790.03
2022-08-04T02:25:58.323Z,99785.27
2022-08-04T02:27:02.626Z,99793.18
2022-08-04T02:28:14.152Z,99790.75
2022-08-04T02:29:22.253Z,99789.68
2022-08-04T02:30:28.212Z,99788.96
2022-08-04T02:31:39.737Z,99795.78
2022-08-04T02:32:44.554Z,99795.78
2022-08-04T02:33:50.238Z,99798.87
2022-08-04T02:35:05.793Z,99793.86
2022-08-04T02:36:11.854Z,99791.22
2022-08-04T02:37:16.588Z,99798.42
2022-08-04T02:38:42.344Z,99790.92
2022-08-04T02:39:48.700Z,99795.85
2022-08-04T02:40:52.490Z,99788.08
2022-08-04T02:41:55.901Z,99787.25
2022-08-04T02:43:00.192Z,99790.47
2022-08-04T02:44:04.863Z,99790.72
2022-08-04T02:45:09.880Z,99794.20
2022-08-04T02:46:17.821Z,99796.13
2022-08-04T02:47:24.456Z,99792.18
2022-08-04T02:48:31.997Z,99788.50
2022-08-04T02:49:37.295Z,99789.60
2022-08-04T02:50:43.910Z,99783.73
2022-08-04T02:51:52.296Z,99783.97
2022-08-04T02:52:57.684Z,99786.88
2022-08-04T02:54:02.525Z,99785.41
2022-08-04T02:55:08.356Z,99778.78
2022-08-04T02:56:13.482Z,99789.02
2022-08-04T02:57:17.968Z,99787.11
2022-08-04T02:58:21.389Z,99782.11
2022-08-04T02:59:26.503Z,99778.97
2022-08-04T03:00:29.690Z,99777.05
2022-08-04T03:01:34.479Z,99781.82
2022-08-04T03:02:55.620Z,99785.87
2022-08-04T03:04:24.529Z,99781.69
2022-08-04T03:05:50.204Z,99783.97
2022-08-04T03:06:41.095Z,99791.70
2022-08-04T03:07:49.456Z,99785.25
2022-08-04T03:09:28.765Z,99785.75
2022-08-04T03:11:01.812Z,99793.16
2022-08-04T03:12:34.073Z,99781.83
2022-08-04T03:13:51.747Z,99792.70
2022-08-04T03:15:09.313Z,99793.76
2022-08-04T03:16:38.816Z,99790.75
2022-08-04T03:17:52.953Z,99794.34
2022-08-04T03:19:22.642Z,99797.70
2022-08-04T03:20:34.491Z,99794.94
2022-08-04T03:21:57.022Z,99794.11
2022-08-04T03:23:13.805Z,99790.02
2022-08-04T03:24:27.804Z,99786.42
2022-08-04T03:25:35.491Z,99782.56
2022-08-04T03:27:00.002Z,99779.55
2022-08-04T03:28:23.748Z,99784.83
2022-08-04T03:29:36.442Z,99789.60
2022-08-04T03:30:55.887Z,99787.60
2022-08-04T03:32:19.870Z,99787.09
2022-08-04T03:33:41.589Z,99788.27
2022-08-04T03:34:56.429Z,99790.27
2022-08-04T03:36:27.207Z,99788.21
2022-08-04T03:37:55.291Z,99786.66
2022-08-04T03:39:38.264Z,99786.91
2022-08-04T03:41:03.921Z,99795.19
2022-08-04T03:42:28.127Z,99792.45
2022-08-04T03:43:58.404Z,99797.83
2022-08-04T03:44:59.500Z,99798.82
2022-08-04T03:46:05.209Z,99797.65
2022-08-04T03:47:33.893Z,99801.48
2022-08-04T03:48:53.440Z,99802.79
2022-08-04T03:50:15.388Z,99801.24
2022-08-04T03:51:35.500Z,99801.70
2022-08-04T03:52:40.696Z,99792.31
2022-08-04T03:53:48.792Z,99802.63
2022-08-04T03:55:20.644Z,99800.55
2022-08-04T03:56:35.332Z,99797.53
2022-08-04T03:57:46.767Z,99801.10
2022-08-04T03:59:11.300Z,99806.48
2022-08-04T04:00:17.713Z,99802.23
2022-08-04T04:02:02.018Z,99803.91
2022-08-04T04:03:23.553Z,99809.42
2022-08-04T04:04:25.603Z,99810.42
2022-08-04T04:05:59.796Z,99804.05
2022-08-04T04:07:09.972Z,99812.38
2022-08-04T04:08:23.478Z,99809.77
2022-08-04T04:10:04.046Z,99810.04
2022-08-04T04:11:04.793Z,99810.63
2022-08-04T04:13:43.193Z,99807.09
2022-08-04T04:16:09.411Z,99811.28
2022-08-04T04:19:33.556Z,99815.80
2022-08-04T04:20:57.472Z,99810.01
2022-08-04T04:22:12.431Z,99809.42
2022-08-04T04:23:39.770Z,99811.86
2022-08-04T04:25:18.986Z,99814.03
2022-08-04T04:26:34.370Z,99815.39
2022-08-04T04:27:48.647Z,99814.53
2022-08-04T04:29:06.734Z,99811.80
2022-08-04T04:30:22.824Z,99807.34
2022-08-04T04:31:28.566Z,99817.17
2022-08-04T04:32:55.436Z,99820.46
2022-08-04T04:34:22.556Z,99815.31
2022-08-04T04:35:37.362Z,99816.48
2022-08-04T04:36:57.891Z,99815.70
2022-08-04T04:38:23.590Z,99816.08
2022-08-04T04:39:41.624Z,99816.91
2022-08-04T04:40:50.247Z,99814.98
2022-08-04T04:42:15.245Z,99814.02
2022-08-04T04:43:51.086Z,99811.21
2022-08-04T04:44:38.371Z,99821.77
2022-08-04T04:45:56.461Z,99814.30
2022-08-04T04:47:43.069Z,99818.62
2022-08-04T04:49:02.882Z,99811.01
2022-08-04T04:50:36.761Z,99817.77
2022-08-04T04:51:52.514Z,99820.78
2022-08-04T04:53:01.168Z,99824.00
2022-08-04T04:54:31.299Z,99820.09
2022-08-04T04:55:49.414Z,99820.53
2022-08-04T04:57:19.284Z,99828.45
2022-08-04T04:58:23.464Z,99823.17
2022-08-04T04:59:29.157Z,99824.86
2022-08-04T05:00:56.192Z,99826.27
2022-08-04T05:02:17.551Z,99827.46
2022-08-04T05:03:42.937Z,99824.31
2022-08-04T05:05:05.745Z,99830.55
2022-08-04T05:06:21.168Z,99826.64
2022-08-04T05:07:38.903Z,99832.74
2022-08-04T05:09:07.728Z,99816.91
2022-08-04T05:10:44.534Z,99832.50
2022-08-04T05:14:32.957Z,99833.09
2022-08-04T05:14:35.306Z,99834.55
2022-08-04T05:14:35.800Z,99836.43
2022-08-04T05:15:36.533Z,99829.27
2022-08-04T05:16:49.656Z,99823.80
2022-08-04T05:17:54.774Z,99829.41
2022-08-04T05:19:03.390Z,99831.39
2022-08-04T05:20:18.141Z,99832.11
2022-08-04T05:21:23.996Z,99835.47
2022-08-04T05:22:32.917Z,99833.41
2022-08-04T05:23:38.592Z,99829.97
2022-08-04T05:24:44.081Z,99828.04
2022-08-04T05:26:00.136Z,99828.34
2022-08-04T05:27:06.419Z,99829.44
2022-08-04T05:28:19.120Z,99828.09
2022-08-04T05:29:32.018Z,99829.77
2022-08-04T05:30:40.740Z,99840.01
2022-08-04T05:31:46.438Z,99836.16
2022-08-04T05:32:52.002Z,99832.55
2022-08-04T05:34:08.208Z,99838.12
2022-08-04T05:35:14.051Z,99845.96
2022-08-04T05:36:39.944Z,99834.61
2022-08-04T05:37:30.446Z,99840.36
2022-08-04T05:38:38.967Z,99837.96
2022-08-04T05:39:47.971Z,99833.78
2022-08-04T05:40:51.871Z,99834.42
2022-08-04T05:41:58.535Z,99831.49
2022-08-04T05:43:01.508Z,99837.49
2022-08-04T05:44:04.447Z,99834.98
2022-08-04T05:45:08.343Z,99837.45
2022-08-04T05:46:13.398Z,99845.78
2022-08-04T05:47:16.556Z,99844.96
2022-08-04T05:48:19.802Z,99843.07
2022-08-04T05:49:23.567Z,99842.03
2022-08-04T05:50:26.754Z,99829.78
2022-08-04T05:51:29.991Z,99839.89
2022-08-04T05:52:33.987Z,99844.96
2022-08-04T05:53:38.083Z,99840.28
2022-08-04T05:54:42.242Z,99840.75
2022-08-04T05:55:48.770Z,99849.14
2022-08-04T05:56:52.942Z,99853.83
2022-08-04T05:57:59.461Z,99854.14
2022-08-04T05:59:03.661Z,99850.39
2022-08-04T06:00:31.845Z,99849.00
2022-08-04T06:01:14.165Z,99845.53
2022-08-04T06:02:19.073Z,99850.39
2022-08-04T06:03:23.322Z,99850.57
2022-08-04T06:04:34.892Z,99849.89
2022-08-04T06:05:40.577Z,99846.10
2022-08-04T06:06:44.697Z,99846.96
2022-08-04T06:08:12.583Z,99853.67
2022-08-04T06:08:52.118Z,99851.45
2022-08-04T06:09:55.508Z,99849.55
2022-08-04T06:11:01.081Z,99849.56
2022-08-04T06:12:09.474Z,99849.02
2022-08-04T06:13:46.746Z,99851.78
2022-08-04T06:14:22.564Z,99854.31
2022-08-04T06:15:27.122Z,99851.22
2022-08-04T06:16:39.930Z,99846.75
2022-08-04T06:18:58.529Z,99850.03
2022-08-04T06:20:03.708Z,99850.03
2022-08-04T06:20:19.985Z,99855.58
2022-08-04T06:21:24.336Z,99852.39
2022-08-04T06:22:28.554Z,99853.72
2022-08-04T06:23:34.342Z,99848.32
2022-08-04T06:24:41.259Z,99846.42
2022-08-04T06:25:53.114Z,99854.89
2022-08-04T06:26:57.707Z,99855.03
2022-08-04T06:28:04.156Z,99850.71
2022-08-04T06:29:08.533Z,99854.61
2022-08-04T06:30:12.274Z,99850.57
2022-08-04T06:32:28.973Z,99855.86
2022-08-04T06:32:30.011Z,99850.17
2022-08-04T06:33:27.150Z,99858.67
2022-08-04T06:34:32.162Z,99854.50
2022-08-04T06:35:35.131Z,99860.00
2022-08-04T06:36:39.026Z,99852.53
2022-08-04T06:37:44.322Z,99848.06
2022-08-04T06:38:47.558Z,99850.97
2022-08-04T06:39:52.816Z,99848.89
2022-08-04T06:40:58.441Z,99854.18
2022-08-04T06:42:17.557Z,99842.03
2022-08-04T06:43:08.295Z,99842.78
2022-08-04T06:44:14.032Z,99854.18
2022-08-04T06:45:19.997Z,99845.59
2022-08-04T06:46:23.225Z,99844.20
2022-08-04T06:47:27.358Z,99848.75
2022-08-04T06:48:33.517Z,99843.03
2022-08-04T06:49:44.169Z,99849.75
2022-08-04T06:51:24.372Z,99843.25
2022-08-04T06:51:51.981Z,99848.86
2022-08-04T06:52:54.129Z,99840.95
2022-08-04T06:53:56.487Z,99843.17
2022-08-04T06:54:58.789Z,99843.34
2022-08-04T06:56:01.998Z,99835.16
2022-08-04T06:57:04.814Z,99835.27
2022-08-04T06:58:09.000Z,99840.81
2022-08-04T06:59:14.110Z,99840.81
2022-08-04T07:00:17.505Z,99837.71
2022-08-04T07:01:21.144Z,99837.34
2022-08-04T07:02:30.156Z,99840.02
2022-08-04T07:03:32.712Z,99836.67
2022-08-04T07:04:34.856Z,99836.67
2022-08-04T07:05:37.904Z,99841.13
2022-08-04T07:06:41.600Z,99837.80
2022-08-04T07:07:56.905Z,99833.91
2022-08-04T07:08:50.317Z,99833.37
2022-08-04T07:09:54.029Z,99830.34
2022-08-04T07:10:58.745Z,99836.72
2022-08-04T07:12:02.310Z,99838.40
2022-08-04T07:13:06.139Z,99832.40
2022-08-04T07:14:08.997Z,99836.27
2022-08-04T07:15:14.355Z,99838.53
2022-08-04T07:16:19.958Z,99842.77
2022-08-04T07:17:23.147Z,99843.19
2022-08-04T07:18:27.895Z,99839.02
2022-08-04T07:19:31.542Z,99851.28
2022-08-04T07:20:36.316Z,99850.27
2022-08-04T07:21:39.299Z,99856.32
2022-08-04T07:22:44.060Z,99856.32
2022-08-04T07:23:46.870Z,99846.66
2022-08-04T07:24:52.579Z,99851.84
2022-08-04T07:26:11.367Z,99848.19
2022-08-04T07:27:03.218Z,99853.47
2022-08-04T07:28:05.382Z,99850.02
2022-08-04T07:29:08.271Z,99845.02
2022-08-04T07:30:11.900Z,99850.77
2022-08-04T07:31:34.470Z,99845.73
2022-08-04T07:32:22.623Z,99842.27
2022-08-04T07:33:26.195Z,99846.73
2022-08-04T07:34:29.591Z,99849.78
2022-08-04T07:36:10.583Z,99847.97
2022-08-04T07:36:50.375Z,99848.82
2022-08-04T07:37:45.296Z,99846.02
2022-08-04T07:38:50.946Z,99844.74
2022-08-04T07:39:51.794Z,99847.53
2022-08-04T07:40:55.127Z,99844.89
2022-08-04T07:42:01.118Z,99844.33
2022-08-04T07:43:05.196Z,99846.84
2022-08-04T07:44:08.643Z,99837.61
2022-08-04T07:45:11.278Z,99843.19
2022-08-04T07:46:16.349Z,99844.88
2022-08-04T07:47:24.875Z,99845.73
2022-08-04T07:48:23.477Z,99847.26
2022-08-04T07:49:57.302Z,99846.02
2022-08-04T07:50:32.271Z,99850.75
2022-08-04T07:51:36.804Z,99842.39
2022-08-04T07:52:40.062Z,99849.64
2022-08-04T07:53:52.909Z,99852.99
2022-08-04T07:54:49.862Z,99851.32
2022-08-04T07:55:53.500Z,99846.84
2022-08-04T07:56:56.821Z,99849.08
2022-08-04T07:57:59.729Z,99855.77
2022-08-04T07:59:02.597Z,99844.89
2022-08-04T08:00:06.761Z,99843.48
2022-08-04T08:01:12.805Z,99852.54
2022-08-04T08:02:15.963Z,99842.10
2022-08-04T08:03:21.625Z,99849.64
2022-08-04T08:04:23.753Z,99844.61
2022-08-04T08:05:27.009Z,99842.09
2022-08-04T08:06:32.028Z,99847.38
2022-08-04T08:07:33.798Z,99845.72
2022-08-04T08:08:40.633Z,99847.07
2022-08-04T08:09:42.953Z,99842.88
2022-08-04T08:10:47.160Z,99843.57
2022-08-04T08:12:36.854Z,99845.80
2022-08-04T08:12:56.995Z,99843.42
2022-08-04T08:14:00.987Z,99843.14
2022-08-04T08:15:05.162Z,99845.06
2022-08-04T08:16:10.705Z,99844.23
2022-08-04T08:17:13.568Z,99839.98
2022-08-04T08:18:16.285Z,99843.67
2022-08-04T08:19:18.848Z,99843.17
2022-08-04T08:20:29.383Z,99841.70
2022-08-04T08:21:27.149Z,99848.45
2022-08-04T08:22:31.582Z,99850.64
2022-08-04T08:23:35.771Z,99844.77
2022-08-04T08:24:38.416Z,99842.39
2022-08-04T08:25:40.733Z,99854.84
2022-08-04T08:26:43.226Z,99849.02
2022-08-04T08:27:56.032Z,99847.89
2022-08-04T08:28:49.849Z,99850.64
2022-08-04T08:29:52.689Z,99846.81
2022-08-04T08:30:56.026Z,99843.41
2022-08-04T08:32:07.889Z,99844.35
2022-08-04T08:33:08.805Z,99842.48
2022-08-04T08:34:12.394Z,99843.23
2022-08-04T08:35:17.004Z,99838.25
2022-08-04T08:36:39.853Z,99834.05
2022-08-04T08:37:46.013Z,99840.66
2022-08-04T08:39:04.090Z,99839.52
2022-08-04T08:40:16.074Z,99836.95
2022-08-04T08:41:42.860Z,99842.02
2022-08-04T08:44:05.153Z,99828.74
2022-08-04T08:44:51.415Z,99838.70
2022-08-04T08:46:10.164Z,99835.34
2022-08-04T08:47:25.184Z,99830.66
2022-08-04T08:48:50.505Z,99832.78
2022-08-04T08:50:21.043Z,99821.62
2022-08-04T08:51:47.495Z,99823.41
2022-08-04T08:52:55.330Z,99829.36
2022-08-04T08:54:14.391Z,99822.84
2022-08-04T08:55:29.275Z,99823.88
2022-08-04T08:57:07.128Z,99825.66
2022-08-04T08:58:19.034Z,99826.34
2022-08-04T08:59:27.641Z,99838.97
2022-08-04T09:01:03.734Z,99834.94
2022-08-04T09:02:42.837Z,99829.61
2022-08-04T09:03:57.847Z,99830.19
2022-08-04T09:05:15.917Z,99836.66
2022-08-04T09:06:40.960Z,99827.98
2022-08-04T09:08:05.556Z,99832.78
2022-08-04T09:10:48.585Z,99826.14
2022-08-04T09:12:07.628Z,99834.45
2022-08-04T09:13:25.632Z,99833.36
2022-08-04T09:14:46.973Z,99834.11
2022-08-04T09:16:26.094Z,99834.45
2022-08-04T09:17:34.507Z,99829.53
2022-08-04T09:18:42.837Z,99829.31
2022-08-04T09:19:51.382Z,99833.98
2022-08-04T09:20:57.277Z,99824.37
2022-08-04T09:22:15.051Z,99834.05
2022-08-04T09:23:35.286Z,99826.38
2022-08-04T09:24:49.775Z,99828.88
2022-08-04T09:27:23.563Z,99831.67
2022-08-04T09:28:52.200Z,99828.97
2022-08-04T09:29:36.482Z,99833.09
2022-08-04T09:30:45.134Z,99830.17
2022-08-04T09:32:07.381Z,99830.48
2022-08-04T09:33:45.746Z,99825.85
2022-08-04T09:34:48.161Z,99825.85
2022-08-04T09:36:00.462Z,99823.08
2022-08-04T09:37:06.863Z,99829.84
2022-08-04T09:38:30.969Z,99833.09
2022-08-04T09:39:52.997Z,99828.59
2022-08-04T09:40:59.988Z,99823.78
2022-08-04T09:42:19.544Z,99829.66
2022-08-04T09:44:42.937Z,99827.51
2022-08-04T09:44:56.227Z,99830.91
2022-08-04T09:46:02.450Z,99832.83
2022-08-04T09:47:23.407Z,99824.58
2022-08-04T09:48:41.565Z,99825.76
2022-08-04T09:49:47.219Z,99829.12
2022-08-04T09:50:56.122Z,99824.19
2022-08-04T09:52:08.705Z,99822.03
2022-08-04T09:53:31.261Z,99830.02
2022-08-04T09:54:46.907Z,99823.53
2022-08-04T09:56:03.578Z,99829.19
2022-08-04T09:57:32.319Z,99831.85
2022-08-04T09:58:57.748Z,99835.86
2022-08-04T10:00:10.291Z,99830.66
2022-08-04T10:01:23.700Z,99833.09
2022-08-04T10:02:29.685Z,99836.72
2022-08-04T10:03:38.493Z,99827.38
2022-08-04T10:04:43.301Z,99828.02
2022-08-04T10:06:11.898Z,99827.68
2022-08-04T10:07:36.577Z,99827.34
2022-08-04T10:08:44.946Z,99819.42
2022-08-04T10:10:12.188Z,99820.48
2022-08-04T10:11:23.627Z,99830.68
2022-08-04T10:12:37.234Z,99825.20
2022-08-04T10:13:49.020Z,99819.20
2022-08-04T10:15:12.986Z,99825.52
2022-08-04T10:16:41.869Z,99833.84
2022-08-04T10:18:05.661Z,99827.35
2022-08-04T10:19:32.664Z,99817.23
2022-08-04T10:21:01.176Z,99820.72
2022-08-04T10:22:30.753Z,99829.31
2022-08-04T10:23:56.363Z,99822.83
2022-08-04T10:26:03.662Z,99822.97
2022-08-04T10:26:47.974Z,99829.44
2022-08-04T10:27:53.761Z,99823.13
2022-08-04T10:29:23.825Z,99822.56
2022-08-04T10:30:29.061Z,99822.78
2022-08-04T10:31:37.580Z,99817.86
2022-08-04T10:33:00.830Z,99818.80
2022-08-04T10:34:06.549Z,99814.72
2022-08-04T10:35:15.057Z,99812.45
2022-08-04T10:36:22.542Z,99808.66
2022-08-04T10:37:59.158Z,99811.03
2022-08-04T10:38:47.287Z,99806.22
2022-08-04T10:39:56.826Z,99807.52
2022-08-04T10:41:32.989Z,99811.87
2022-08-04T10:42:38.707Z,99805.53
2022-08-04T10:44:16.463Z,99814.17
2022-08-04T10:45:22.294Z,99800.20
2022-08-04T10:46:28.246Z,99810.86
2022-08-04T10:47:34.946Z,99815.86
2022-08-04T10:49:01.540Z,99808.37
2022-08-04T10:50:06.980Z,99811.03
2022-08-04T10:51:58.975Z,99819.84
2022-08-04T10:52:46.821Z,99816.50
2022-08-04T10:53:55.326Z,99811.87
2022-08-04T10:55:05.353Z,99809.48
2022-08-04T10:56:17.377Z,99814.48
2022-08-04T10:57:41.841Z,99813.48
2022-08-04T10:58:50.322Z,99811.48
2022-08-04T11:02:00.893Z,99797.77
2022-08-04T11:02:36.874Z,99802.11
2022-08-04T11:03:45.506Z,99793.84
2022-08-04T11:05:07.341Z,99796.59
2022-08-04T11:06:10.874Z,99789.45
2022-08-04T11:07:15.110Z,99786.25
2022-08-04T11:08:21.751Z,99787.79
2022-08-04T11:09:25.143Z,99793.77
2022-08-04T11:10:30.351Z,99796.67
2022-08-04T11:11:57.154Z,99790.78
2022-08-04T11:12:47.303Z,99793.64
2022-08-04T11:14:14.511Z,99791.97
2022-08-04T11:15:23.673Z,99796.44
2022-08-04T11:16:50.774Z,99793.84
2022-08-04T11:18:02.426Z,99790.84
2022-08-04T11:19:45.015Z,99800.56
2022-08-04T11:20:52.993Z,99802.59
2022-08-04T11:22:06.272Z,99802.97
2022-08-04T11:23:13.281Z,99796.42
2022-08-04T11:25:59.539Z,99793.08
2022-08-04T11:27:05.371Z,99787.11
2022-08-04T11:28:36.876Z,99787.87
2022-08-04T11:30:01.928Z,99784.84
2022-08-04T11:31:19.671Z,99777.57
2022-08-04T11:32:26.201Z,99780.78
2022-08-04T11:33:48.497Z,99776.97
2022-08-04T11:34:54.365Z,99779.50
2022-08-04T11:36:17.785Z,99778.73
2022-08-04T11:37:26.962Z,99772.87
2022-08-04T11:38:38.910Z,99777.23
2022-08-04T11:39:47.514Z,99774.14
2022-08-04T11:41:02.279Z,99780.23
2022-08-04T11:42:18.534Z,99776.54
2022-08-04T11:44:01.329Z,99765.47
2022-08-04T11:44:51.068Z,99769.38
2022-08-04T11:45:56.909Z,99768.30
2022-08-04T11:47:02.819Z,99763.05
2022-08-04T11:48:08.490Z,99755.42
2022-08-04T11:49:30.603Z,99763.84
2022-08-04T11:50:37.428Z,99760.02
2022-08-04T11:51:42.512Z,99759.47
2022-08-04T11:52:46.103Z,99762.02
2022-08-04T11:53:50.000Z,99756.48
2022-08-04T11:54:54.446Z,99758.38
2022-08-04T11:56:09.195Z,99765.94
2022-08-04T11:57:05.592Z,99760.21
2022-08-04T11:58:07.745Z,99761.91
2022-08-04T11:59:09.761Z,99752.48
2022-08-04T12:00:17.154Z,99763.85
2022-08-04T12:01:37.621Z,99763.39
2022-08-04T12:03:01.741Z,99761.21
2022-08-04T12:04:13.526Z,99760.08
2022-08-04T12:05:32.319Z,99764.06
2022-08-04T12:07:00.477Z,99755.94
2022-08-04T12:08:01.407Z,99760.00
2022-08-04T12:09:13.101Z,99757.40
2022-08-04T12:10:41.463Z,99761.95
2022-08-04T12:12:04.966Z,99765.41
2022-08-04T12:13:13.817Z,99774.97
2022-08-04T12:14:43.713Z,99777.83
2022-08-04T12:16:04.480Z,99789.41
2022-08-04T12:17:08.107Z,99806.52
2022-08-04T12:18:19.546Z,99816.69
2022-08-04T12:19:26.482Z,99803.33
2022-08-04T12:20:41.047Z,99792.48
2022-08-04T12:21:42.744Z,99793.94
2022-08-04T12:22:50.708Z,99798.03
2022-08-04T12:24:00.414Z,99812.59
2022-08-04T12:25:04.550Z,99804.63
2022-08-04T12:26:10.867Z,99798.08
2022-08-04T12:27:19.827Z,99803.37
2022-08-04T12:28:59.708Z,99802.92
2022-08-04T12:29:41.463Z,99804.00
2022-08-04T12:31:00.157Z,99798.66
2022-08-04T12:31:59.051Z,99809.09
2022-08-04T12:33:10.726Z,99803.03
2022-08-04T12:34:21.098Z,99797.72
2022-08-04T12:36:05.169Z,99805.45
2022-08-04T12:37:11.904Z,99795.02
2022-08-04T12:38:15.896Z,99805.83
2022-08-04T12:39:22.951Z,99806.85
2022-08-04T12:40:29.815Z,99806.31
2022-08-04T12:41:35.582Z,99801.44
2022-08-04T12:42:59.817Z,99799.42
2022-08-04T12:44:36.420Z,99796.38
2022-08-04T12:45:20.762Z,99792.49
2022-08-04T12:46:27.279Z,99785.81
2022-08-04T12:47:30.985Z,99790.02
2022-08-04T12:48:36.345Z,99793.33
2022-08-04T12:49:42.149Z,99801.97
2022-08-04T12:50:49.943Z,99794.72
2022-08-04T12:52:07.690Z,99794.87
2022-08-04T12:53:03.343Z,99794.73
2022-08-04T12:54:05.941Z,99794.44
2022-08-04T12:55:12.083Z,99789.69
2022-08-04T12:56:18.962Z,99792.78
2022-08-04T12:57:24.135Z,99788.46
2022-08-04T12:58:43.205Z,99789.57
2022-08-04T12:59:45.401Z,99788.60
2022-08-04T13:01:02.356Z,99786.25
2022-08-04T13:02:11.964Z,99789.71
2022-08-04T13:03:16.504Z,99797.79
2022-08-04T13:04:29.171Z,99792.32
2022-08-04T13:05:31.234Z,99789.23
2022-08-04T13:06:36.523Z,99795.75
2022-08-04T13:07:44.026Z,99794.92
2022-08-04T13:08:47.237Z,99801.86
2022-08-04T13:09:50.867Z,99798.79
2022-08-04T13:10:56.601Z,99797.84
2022-08-04T13:12:09.363Z,99797.11
2022-08-04T13:13:18.493Z,99804.90
2022-08-04T13:14:27.406Z,99792.78
2022-08-04T13:15:28.057Z,99796.69
2022-08-04T13:16:32.024Z,99800.66
2022-08-04T13:17:52.176Z,99794.02
2022-08-04T13:18:56.208Z,99791.36
2022-08-04T13:19:58.443Z,99786.03
2022-08-04T13:21:19.938Z,99793.44
2022-08-04T13:22:29.300Z,99799.55
2022-08-04T13:24:56.260Z,99792.21
2022-08-04T13:26:42.822Z,99793.13
2022-08-04T13:27:03.587Z,99793.66
2022-08-04T13:28:03.526Z,99800.41
2022-08-04T13:29:16.152Z,99806.58
2022-08-04T13:30:21.161Z,99802.25
2022-08-04T13:30:25.387Z,99795.95
2022-08-04T13:31:25.765Z,99803.76
2022-08-04T13:32:31.611Z,99801.63
2022-08-04T13:33:37.161Z,99802.50
2022-08-04T13:34:41.957Z,99802.88
2022-08-04T13:35:54.768Z,99803.58
2022-08-04T13:36:54.745Z,99797.03
2022-08-04T13:37:57.870Z,99802.59
2022-08-04T13:39:04.515Z,99801.13
2022-08-04T13:40:11.534Z,99805.33
2022-08-04T13:41:16.688Z,99807.58
2022-08-04T13:42:21.070Z,99806.97
2022-08-04T13:44:16.295Z,99807.73
2022-08-04T13:44:34.063Z,99810.45
2022-08-04T13:45:40.184Z,99805.89
2022-08-04T13:46:50.725Z,99805.27
2022-08-04T13:47:56.810Z,99796.38
2022-08-04T13:50:21.702Z,99797.66
2022-08-04T13:51:25.806Z,99806.22
2022-08-04T13:52:29.685Z,99802.48
2022-08-04T13:53:38.730Z,99803.14
2022-08-04T13:54:43.535Z,99802.09
2022-08-04T13:55:46.295Z,99799.95
2022-08-04T13:56:52.091Z,99800.97
2022-08-04T13:58:01.530Z,99804.61
2022-08-04T13:59:07.234Z,99797.79
2022-08-04T14:00:13.999Z,99795.20
2022-08-04T14:01:19.503Z,99798.72
2022-08-04T14:02:40.529Z,99799.70
2022-08-04T14:03:53.326Z,99793.72
2022-08-04T14:05:00.134Z,99798.41
2022-08-04T14:06:08.924Z,99799.27
2022-08-04T14:07:21.088Z,99802.69
2022-08-04T14:08:29.050Z,99797.88
2022-08-04T14:09:35.518Z,99799.71
2022-08-04T14:10:39.625Z,99787.11